METAR Data
IDs: Format: Raw Decoded Include TAF

Data at: 1715 UTC 21 Sep 2018

KGVT 211650Z AUTO 16010G15KT 10SM BKN018 BKN025 BKN085 30/24 A2999 RMK AO2
KGVT 211630Z AUTO 15008KT 10SM BKN018 OVC027 30/25 A3000 RMK AO2
KGVT 211610Z AUTO 16007KT 10SM BKN015 OVC023 28/25 A3001 RMK AO2
KGVT 211550Z AUTO 16008KT 10SM OVC015 28/25 A3000 RMK AO2
KGVT 211530Z AUTO 17008KT 10SM OVC013 28/25 A3000 RMK AO2
KGVT 211510Z AUTO 17008KT 10SM OVC011 28/25 A2999 RMK AO2
KGVT 211450Z AUTO 15007KT 10SM OVC009 28/25 A2999 RMK AO2
KGVT 211430Z AUTO 15005KT 10SM OVC009 27/25 A2999 RMK AO2 LTG DSNT N
KGVT 211410Z AUTO 13004KT 10SM OVC009 26/25 A2999 RMK AO2
KGVT 211350Z AUTO 12004KT 10SM OVC009 26/25 A2999 RMK AO2
KGVT 211330Z AUTO 13006KT 10SM OVC009 26/24 A2999 RMK AO2
KGVT 211310Z AUTO 13003KT 10SM OVC009 26/25 A2999 RMK AO2
KGVT 211250Z AUTO 12005KT 10SM OVC011 26/24 A2998 RMK AO2
KGVT 211230Z AUTO 13003KT 10SM OVC011 26/24 A2998 RMK AO2
KGVT 211210Z AUTO 13003KT 10SM OVC011 26/24 A2997 RMK AO2
KGVT 211150Z AUTO 12003KT 10SM OVC011 26/24 A2997 RMK AO2
KGVT 211130Z AUTO 11005KT 10SM OVC011 26/24 A2997 RMK AO2
KGVT 211110Z AUTO 00000KT 10SM OVC011 26/24 A2997 RMK AO2
KGVT 211050Z AUTO 11003KT 10SM OVC011 26/24 A2996 RMK AO2 P0003
KGVT 211030Z AUTO 13003KT 10SM RA BKN011 OVC016 26/24 A2996 RMK AO2
KGVT 211010Z AUTO 15003KT 10SM BKN015 BKN024 OVC080 26/24 A2996 RMK AO2
KGVT 210950Z AUTO 15004KT 10SM BKN015 BKN024 OVC080 26/24 A2996 RMK AO2
KGVT 210930Z AUTO 14003KT 10SM SCT017 OVC024 26/23 A2996 RMK AO2
KGVT 210910Z AUTO 00000KT 10SM BKN024 BKN029 OVC085 26/23 A2996 RMK AO2
KGVT 210850Z AUTO 00000KT 10SM SCT022 SCT027 OVC095 26/23 A2996 RMK AO2
KGVT 210830Z AUTO 00000KT 10SM SCT025 OVC095 26/23 A2996 RMK AO2
KGVT 210810Z AUTO 00000KT 10SM OVC085 25/23 A2996 RMK AO2
KGVT 210750Z AUTO 00000KT 10SM OVC085 25/23 A2996 RMK AO2
KGVT 210730Z AUTO 00000KT 10SM OVC085 25/23 A2996 RMK AO2
KGVT 210710Z AUTO 00000KT 10SM BKN100 25/23 A2995 RMK AO2
KGVT 210650Z AUTO 00000KT 10SM SCT100 25/23 A2995 RMK AO2
KGVT 210630Z AUTO 00000KT 10SM CLR 25/23 A2995 RMK AO2
KGVT 210610Z AUTO 17003KT 10SM CLR 25/23 A2996 RMK AO2
KGVT 210550Z AUTO 18003KT 10SM CLR 25/23 A2996 RMK AO2
KGVT 210530Z AUTO 18005KT 10SM CLR 25/22 A2997 RMK AO2
KGVT 210510Z AUTO 17004KT 10SM CLR 25/22 A2997 RMK AO2
KGVT 210450Z AUTO 17004KT 10SM CLR 25/22 A2997 RMK AO2
KGVT 210430Z AUTO 18003KT 7SM SCT035 SCT060 25/22 A2997 RMK AO2
KGVT 210410Z AUTO 16003KT 10SM CLR 25/22 A2997 RMK AO2
KGVT 210350Z AUTO 00000KT 10SM CLR 25/21 A2997 RMK AO2
KGVT 210330Z AUTO 00000KT 10SM SCT110 25/22 A2996 RMK AO2
KGVT 210310Z AUTO 00000KT 10SM SCT100 BKN110 26/21 A2996 RMK AO2
KGVT 210250Z AUTO 00000KT 10SM BKN100 BKN120 26/21 A2997 RMK AO2
KGVT 210230Z AUTO 00000KT 10SM SCT100 26/21 A2997 RMK AO2
KGVT 210210Z AUTO 00000KT 10SM SCT120 25/22 A2997 RMK AO2
KGVT 210150Z AUTO 00000KT 10SM SCT070 SCT090 BKN120 26/22 A2997 RMK AO2
KGVT 210130Z AUTO 16005KT 10SM -VCTSRA SCT070 SCT100 SCT120 26/22 A2996 RMK AO2
KGVT 210110Z AUTO 18011G17KT 10SM SCT055 28/20 A2994 RMK AO2 LTG DSNT W
KGVT 210050Z AUTO 16016G22KT 10SM SCT055 30/20 A2994 RMK AO2
KGVT 210030Z AUTO 16004KT 10SM CLR 30/22 A2991 RMK AO2 LTG DSNT SE AND SW
KGVT 210010Z AUTO 15004KT 10SM CLR 30/22 A2991 RMK AO2 LTG DSNT SE AND S
KGVT 202350Z AUTO 16003KT 10SM CLR 31/21 A2990 RMK AO2 LTG DSNT S
KGVT 202330Z AUTO 16007KT 10SM CLR 31/21 A2990 RMK AO2 LTG DSNT SE AND S
KGVT 202310Z AUTO 16008KT 10SM CLR 32/21 A2990 RMK AO2 LTG DSNT S
KGVT 202250Z AUTO 15008KT 10SM CLR 32/21 A2989 RMK AO2 LTG DSNT SW
KGVT 202230Z AUTO 16007KT 10SM SCT060 32/20 A2989 RMK AO2
KGVT 202210Z AUTO 14010KT 10SM SCT050 SCT060 33/20 A2990 RMK AO2 LTG DSNT SW
KGVT 202150Z AUTO 16009KT 10SM SCT050 33/21 A2990 RMK AO2
KGVT 202130Z AUTO 16006KT 10SM CLR 32/20 A2991 RMK AO2
KGVT 202110Z AUTO 17006KT 10SM SCT060 33/21 A2991 RMK AO2
KGVT 202050Z AUTO 15008KT 10SM SCT046 SCT060 33/21 A2991 RMK AO2
KGVT 202030Z AUTO 14005KT 10SM BKN048 BKN050 32/21 A2992 RMK AO2
KGVT 202010Z AUTO 13007KT 10SM SCT048 33/21 A2993 RMK AO2
KGVT 201950Z AUTO 16006KT 10SM SCT048 33/20 A2993 RMK AO2
KGVT 201930Z AUTO 14009KT 10SM SCT046 33/21 A2994 RMK AO2
KGVT 201910Z AUTO 15007G15KT 10SM SCT046 32/20 A2995 RMK AO2
KGVT 201855Z AUTO 18008KT 10SM CLR 33/21 A2996 RMK AO2
KGVT 201830Z AUTO 18006KT 10SM SCT043 33/20 A2997 RMK AO2
KGVT 201815Z AUTO 17007KT 10SM SCT041 32/21 A2997 RMK AO2
KGVT 201750Z AUTO 16008G14KT 10SM BKN037 32/21 A2998 RMK AO2
KGVT 201730Z AUTO 20006KT 10SM BKN035 32/22 A2999 RMK AO2
KGVT 201710Z AUTO 20008KT 10SM SCT035 32/22 A2999 RMK AO2
KGVT 201650Z AUTO 17008KT 10SM CLR 32/22 A3000 RMK AO2
KGVT 201630Z AUTO 18006KT 10SM CLR 31/22 A3000 RMK AO2
KGVT 201610Z AUTO 18009KT 10SM CLR 31/22 A3000 RMK AO2
KGVT 201550Z AUTO 17005KT 10SM SCT024 31/23 A3000 RMK AO2
KGVT 201530Z AUTO 19005KT 10SM CLR 30/23 A3000 RMK AO2
KGVT 201510Z AUTO 17007KT 10SM CLR 30/23 A3000 RMK AO2
KGVT 201450Z AUTO 16005KT 10SM CLR 29/23 A2999 RMK AO2 P0
KGVT 201430Z AUTO 18005KT 10SM CLR 28/24 A2999 RMK AO2
KGVT 201410Z AUTO 17006KT 10SM CLR 28/23 A2998 RMK AO2
KGVT 201350Z AUTO 16006KT 10SM CLR 28/23 A2998 RMK AO2
KGVT 201330Z AUTO 17006KT 10SM CLR 27/24 A2998 RMK AO2
KGVT 201310Z AUTO 16005KT 10SM CLR 26/24 A2997 RMK AO2
KGVT 201250Z AUTO 16005KT 10SM CLR 26/23 A2997 RMK AO2
KGVT 201230Z AUTO 16004KT 10SM CLR 25/23 A2997 RMK AO2
KGVT 201210Z AUTO 16003KT 10SM CLR 25/23 A2997 RMK AO2
KGVT 201150Z AUTO 16003KT 10SM CLR 25/23 A2996 RMK AO2
KGVT 201130Z AUTO 16004KT 10SM CLR 25/23 A2996 RMK AO2
KGVT 201110Z AUTO 15003KT 10SM CLR 25/22 A2995 RMK AO2
KGVT 201050Z AUTO 14004KT 10SM CLR 24/22 A2995 RMK AO2
KGVT 201030Z AUTO 14004KT 10SM CLR 24/22 A2994 RMK AO2
KGVT 201010Z AUTO 00000KT 10SM CLR 24/22 A2994 RMK AO2
KGVT 200950Z AUTO 00000KT 10SM CLR 24/22 A2994 RMK AO2
KGVT 200930Z AUTO 00000KT 10SM CLR 25/22 A2993 RMK AO2
KGVT 200910Z AUTO 14003KT 10SM CLR 24/22 A2993 RMK AO2
KGVT 200850Z AUTO 15003KT 10SM CLR 24/22 A2993 RMK AO2
KGVT 200830Z AUTO 00000KT 10SM CLR 24/22 A2994 RMK AO2
KGVT 200810Z AUTO 00000KT 10SM CLR 24/22 A2994 RMK AO2
KGVT 200750Z AUTO 00000KT 10SM CLR 24/22 A2994 RMK AO2
KGVT 200730Z AUTO 00000KT 10SM CLR 24/22 A2994 RMK AO2
KGVT 200710Z AUTO 00000KT 10SM CLR 24/22 A2994 RMK AO2
KGVT 200650Z AUTO 00000KT 10SM CLR 24/22 A2994 RMK AO2
KGVT 200630Z AUTO 00000KT 10SM CLR 24/21 A2994 RMK AO2
KGVT 200610Z AUTO 00000KT 10SM CLR 24/21 A2995 RMK AO2
KGVT 200550Z AUTO 11003KT 10SM CLR 25/21 A2995 RMK AO2 P0001
KGVT 200530Z AUTO 13005KT 10SM SCT110 25/21 A2994 RMK AO2 P0001 LTG DSNT E